Latest Weather Observations for Glen Innes Airport

IDN60801

Issued at 2:13 am EDT Friday 29 January 2021 (issued every 10 minutes, with the page automatically refreshed every 10 minutes)

About weather observations | Map of weather stations | Latest weather observations for NSW | Other Formats
Station Details ID: 056243 Name: GLEN INNES AIRPORT AWS Lat: -29.68 Lon: 151.69 Height: 1044.3 m
Data from the previous 72 hours. | See also: Recent months at Glen Innes Airport
Date/Time
EDT
Temp
°C
App
Temp
°C
Dew
Point
°C
Rel
Hum
%
Delta-T
°C
Wind Press
QNH
hPa
Press
MSL
hPa
Rain since
9am
mm
Dir  Spd
km/h
Gust
km/h
Spd
kts
Gust
kts
29/02:00am 16.1 12.5 14.1 88 1.2 E 26 35 14 19 1017.5 1011.7 0.0
29/01:30am 15.2 12.0 13.2 88 1.2 E 22 28 12 15 1017.9 1012.1 0.0
29/01:00am 15.3 11.4 13.2 87 1.2 E 26 35 14 19 1018.3 1012.4 0.0
29/12:30am 15.4 11.5 13.4 88 1.2 E 26 37 14 20 1018.3 1012.4 0.0
29/12:00am 15.3 11.4 13.2 87 1.2 E 26 35 14 19 1018.4 1012.6 0.0
 
Date/Time
EDT
Temp
°C
App
Temp
°C
Dew
Point
°C
Rel
Hum
%
Delta-T
°C
Wind Press
QNH
hPa
Press
MSL
hPa
Rain since
9am
mm
Dir  Spd
km/h
Gust
km/h
Spd
kts
Gust
kts
28/11:30pm 15.5 11.2 13.2 86 1.3 E 28 39 15 21 1018.5 1012.7 0.0
28/11:00pm 15.7 11.6 13.7 88 1.2 ESE 28 33 15 18 1018.4 1012.6 0.0
28/10:30pm 15.9 12.3 14.1 89 1.1 ESE 26 33 14 18 1018.5 1012.7 0.0
28/10:00pm 15.8 13.2 13.8 88 1.2 ESE 20 30 11 16 1018.7 1012.9 0.0
28/09:30pm 16.1 12.8 13.9 87 1.3 E 24 33 13 18 1018.3 1012.4 0.0
28/09:00pm 16.4 13.2 14.2 87 1.3 E 24 32 13 17 1018.4 1012.6 0.0
28/08:30pm 16.6 14.3 14.1 85 1.5 E 19 24 10 13 1018.2 1012.3 0.0
28/08:00pm 17.7 14.9 14.2 80 2.1 E 22 32 12 17 1017.9 1012.1 0.0
28/07:30pm 19.1 14.9 14.6 75 2.7 E 30 37 16 20 1017.5 1011.7 0.0
28/07:00pm 20.5 15.2 14.2 67 3.8 E 35 44 19 24 1017.1 1011.2 0.0
28/06:30pm 21.9 17.6 14.5 63 4.6 E 30 43 16 23 1016.8 1011.0 0.0
28/06:00pm 23.0 18.3 14.8 60 5.1 E 33 44 18 24 1016.7 1010.9 0.0
28/05:30pm 22.7 18.0 14.3 59 5.2 E 32 41 17 22 1016.7 1010.9 0.0
28/05:00pm 24.5 20.3 15.7 58 5.6 E 32 43 17 23 1016.6 1010.8 0.0
28/04:30pm 25.6 22.1 16.5 57 5.8 ESE 30 43 16 23 1016.7 1010.9 0.0
28/04:00pm 25.2 21.5 16.1 57 5.8 ESE 30 44 16 24 1017.1 1011.2 0.0
28/03:30pm 24.7 20.6 16.4 60 5.3 E 33 43 18 23 1017.3 1011.4 0.0
28/03:05pm 22.8 18.7 16.4 67 4.1 E 33 52 18 28 1017.7 1011.9 0.0
28/03:00pm 23.9 19.3 16.2 62 4.9 E 35 52 19 28 1017.6 1011.8 0.0
28/02:57pm 24.0 19.7 15.8 60 5.2 E 33 52 18 28 1017.6 1011.8 0.0
28/02:30pm 24.7 20.9 16.7 61 5.1 E 32 41 17 22 1017.9 1012.1 0.0
28/02:00pm 24.2 20.2 16.2 61 5.1 E 32 43 17 23 1018.3 1012.4 0.0
28/01:30pm 24.9 20.9 16.1 58 5.6 E 32 44 17 24 1018.2 1012.3 0.0
28/01:00pm 24.2 20.5 17.0 64 4.6 E 32 44 17 24 1018.5 1012.7 0.0
28/12:30pm 23.8 20.0 16.6 64 4.6 ESE 32 43 17 23 1018.7 1012.9 0.0
28/12:14pm 21.5 17.4 16.0 71 3.5 ESE 32 43 17 23 1018.9 1013.1 0.0
28/12:00pm 22.3 17.1 15.6 66 4.2 E 37 48 20 26 1018.9 1013.1 0.0
28/11:32am 21.6 17.1 15.4 68 3.9 ESE 33 44 18 24 1018.8 1013.0 0.0
28/11:30am 22.0 17.5 16.3 70 3.6 E 35 48 19 26 1018.8 1013.0 0.0
28/11:00am 21.2 17.7 16.6 75 2.9 E 30 43 16 23 1019.2 1013.4 0.0
28/10:30am 20.6 16.3 15.8 74 3.0 E 33 46 18 25 1019.2 1013.4 0.0
28/10:00am 19.4 16.6 16.4 83 1.9 E 26 37 14 20 1019.2 1013.4 0.0
28/09:30am 19.5 15.5 16.2 81 2.1 E 32 44 17 24 1018.8 1013.0 0.0
28/09:00am 18.5 15.3 17.2 92 0.8 E 30 41 16 22 1018.7 1012.9 0.0
28/08:30am 18.0 15.5 17.2 95 0.5 E 26 33 14 18 1018.4 1012.6 0.0
28/08:00am 17.8 16.1 17.2 96 0.4 E 22 30 12 16 1018.2 1012.3 0.0
28/07:59am 17.9 16.3 17.4 97 0.3 E 22 30 12 16 1018.2 1012.3 0.0
28/07:37am 17.8 16.5 17.3 97 0.3 E 20 26 11 14 1017.8 1012.0 0.0
28/07:30am 17.9 16.7 17.4 97 0.3 E 20 26 11 14 1017.7 1011.9 0.0
28/07:00am 17.6 16.3 17.3 98 0.2 E 20 30 11 16 1017.4 1011.5 0.0
28/06:52am 17.6 16.5 17.3 98 0.2 E 19 26 10 14 1017.2 1011.3 0.0
28/06:30am 17.4 16.2 17.1 98 0.2 E 19 24 10 13 1016.8 1011.0 0.0
28/06:03am 17.2 16.6 16.7 97 0.3 E 15 19 8 10 1016.7 1010.9 0.0
28/06:00am 17.2 16.6 16.7 97 0.3 ESE 15 19 8 10 1016.6 1010.8 0.0
28/05:50am 17.2 16.2 16.6 96 0.4 E 17 22 9 12 1016.5 1010.6 0.0
28/05:49am 17.2 16.2 16.6 96 0.4 E 17 22 9 12 1016.5 1010.6 0.0
28/05:30am 17.6 15.2 16.5 93 0.7 ESE 24 32 13 17 1016.5 1010.6 0.0
28/05:00am 17.8 16.7 16.3 91 0.9 ESE 17 20 9 11 1016.3 1010.4 0.0
28/04:30am 18.2 16.5 16.2 88 1.2 E 20 28 11 15 1016.2 1010.3 0.0
28/04:00am 18.3 15.4 16.1 87 1.4 E 26 35 14 19 1016.0 1010.1 0.0
28/03:53am 18.4 15.5 16.2 87 1.4 E 26 33 14 18 1016.0 1010.1 0.0
28/03:30am 18.4 15.5 16.0 86 1.5 E 26 35 14 19 1015.8 1010.0 0.0
28/03:12am 18.3 15.8 16.1 87 1.4 E 24 30 13 16 1016.1 1010.2 0.0
28/03:00am 18.3 16.2 16.1 87 1.4 E 22 32 12 17 1016.2 1010.3 0.0
28/02:48am 18.2 16.0 16.0 87 1.4 E 22 30 12 16 1016.2 1010.3 0.0
28/02:30am 18.4 15.8 16.0 86 1.5 E 24 32 13 17 1016.0 1010.1 0.0
28/02:08am 18.5 16.4 16.3 87 1.4 E 22 28 12 15 1016.0 1010.1 0.0
28/02:00am 18.5 16.1 16.3 87 1.4 E 24 32 13 17 1016.1 1010.2 0.0
28/01:57am 18.6 15.8 16.4 87 1.4 E 26 33 14 18 1016.0 1010.1 0.0
28/01:52am 18.5 15.7 16.3 87 1.4 E 26 33 14 18 1016.1 1010.2 0.0
28/01:40am 18.7 16.0 16.5 87 1.4 E 26 35 14 19 1016.2 1010.3 0.0
28/01:30am 18.7 15.5 16.3 86 1.5 E 28 37 15 20 1016.3 1010.4 0.0
28/01:00am 18.0 16.3 16.3 90 1.1 E 20 28 11 15 1016.5 1010.6 0.0
28/12:30am 18.0 15.9 16.3 90 1.1 E 22 32 12 17 1016.6 1010.8 0.0
28/12:00am 18.3 17.2 16.3 88 1.2 ESE 17 24 9 13 1017.1 1011.2 0.0
 
Date/Time
EDT
Temp
°C
App
Temp
°C
Dew
Point
°C
Rel
Hum
%
Delta-T
°C
Wind Press
QNH
hPa
Press
MSL
hPa
Rain since
9am
mm
Dir  Spd
km/h
Gust
km/h
Spd
kts
Gust
kts
27/11:30pm 18.6 18.0 16.6 88 1.3 ESE 15 19 8 10 1017.1 1011.2 0.0
27/11:00pm 18.5 16.8 16.3 87 1.4 ESE 20 28 11 15 1017.2 1011.3 0.0
27/10:30pm 19.4 17.0 16.4 83 1.9 ESE 24 32 13 17 1017.3 1011.4 0.0
27/10:00pm 20.4 19.5 17.8 85 1.7 E 19 24 10 13 1017.2 1011.3 0.0
27/09:30pm 20.5 18.6 17.7 84 1.8 ESE 24 32 13 17 1017.0 1011.1 0.0
27/09:00pm 20.7 20.2 17.9 84 1.8 E 17 22 9 12 1016.5 1010.6 0.0
27/08:30pm 21.4 19.6 17.8 80 2.3 ESE 24 32 13 17 1016.1 1010.2 0.0
27/08:00pm 22.1 20.6 17.7 76 2.8 E 22 30 12 16 1016.0 1010.1 0.0
27/07:30pm 23.0 21.2 17.0 69 3.9 E 22 30 12 16 1015.5 1009.6 0.0
27/07:00pm 25.2 21.4 16.6 59 5.5 E 32 43 17 23 1014.4 1008.5 0.0
27/06:30pm 25.8 22.1 16.1 55 6.2 E 30 41 16 22 1013.9 1007.9 0.0
27/06:00pm 27.7 24.1 16.3 49 7.4 E 30 37 16 20 1013.6 1007.7 0.0
27/05:30pm 28.6 26.5 17.2 50 7.5 E 24 37 13 20 1013.5 1007.6 0.0
27/05:00pm 27.5 25.7 16.1 49 7.3 ESE 20 28 11 15 1013.5 1007.6 0.0
27/04:30pm 28.5 26.0 15.1 44 8.5 E 22 32 12 17 1013.5 1007.6 0.0
27/04:00pm 30.3 28.3 15.6 41 9.5 E 20 33 11 18 1013.3 1007.4 0.0
27/03:30pm 28.2 24.2 14.1 42 8.8 ENE 28 43 15 23 1013.5 1007.6 0.0
27/03:00pm 28.7 25.3 13.8 40 9.3 ESE 24 35 13 19 1013.5 1007.6 0.0
27/02:30pm 31.3 29.5 14.4 35 10.7 ESE 17 26 9 14 1013.5 1007.6 0.0
27/02:00pm 31.1 28.9 13.4 34 11.1 ESE 17 28 9 15 1013.9 1007.9 0.0
27/01:30pm 30.3 27.9 12.7 34 10.9 ESE 17 26 9 14 1014.1 1008.2 0.0
27/01:00pm 29.5 28.1 13.3 37 10.1 SSE 13 20 7 11 1014.4 1008.5 0.0
27/12:30pm 28.6 27.2 13.3 39 9.5 S 13 19 7 10 1014.5 1008.6 0.0
27/12:00pm 28.5 28.3 14.7 43 8.7 S 9 17 5 9 1014.6 1008.7 0.0
27/11:30am 27.1 26.5 14.5 46 7.9 W 11 17 6 9 1014.7 1008.8 0.0
27/11:00am 26.8 25.0 14.5 46 7.7 WSW 17 24 9 13 1014.8 1009.0 0.0
27/10:30am 26.2 24.1 13.7 46 7.7 W 17 26 9 14 1014.7 1008.8 0.0
27/10:00am 26.2 25.8 15.3 51 6.9 W 11 20 6 11 1014.8 1009.0 0.0
27/09:30am 24.3 24.2 15.0 56 5.8 W 9 15 5 8 1015.0 1009.1 0.0
27/09:00am 22.6 24.0 16.4 68 3.9 NW 4 11 2 6 1014.8 1009.0 0.0
27/08:30am 20.5 21.9 17.7 84 1.8 E 7 9 4 5 1014.7 1008.8 0.0
27/08:00am 18.2 19.5 17.6 96 0.4 E 7 9 4 5 1014.6 1008.7 0.0
27/07:30am 16.5 16.9 16.3 99 0.1 ESE 9 9 5 5 1014.2 1008.3 0.0
27/07:00am 14.3 13.6 14.3 100 0.0 ESE 11 11 6 6 1013.9 1007.9 0.0
27/06:45am 12.7 11.8 12.5 99 0.1 ESE 9 11 5 6 1013.7 1007.8 0.0
27/06:30am 12.3 11.6 12.1 99 0.1 ESE 7 9 4 5 1013.5 1007.6 0.0
27/06:00am 12.6 13.4 12.4 99 0.1 CALM 0 6 0 3 1013.2 1007.3 0.0
27/05:38am 12.4 11.9 12.1 98 0.2 SE 6 7 3 4 1013.0 1007.0 0.0
27/05:36am 12.3 11.8 12.0 98 0.2 SE 6 7 3 4 1013.0 1007.0 0.0
27/05:30am 12.3 11.8 12.0 98 0.2 SE 6 7 3 4 1013.0 1007.0 0.0
27/05:00am 12.9 12.4 12.6 98 0.2 SE 7 9 4 5 1012.7 1006.8 0.0
27/04:59am 12.9 12.6 12.6 98 0.2 SE 6 9 3 5 1012.7 1006.8 0.0
27/04:31am 13.9 13.0 13.6 98 0.2 E 11 13 6 7 1012.4 1006.5 0.0
27/04:30am 13.9 13.3 13.6 98 0.2 ESE 9 13 5 7 1012.4 1006.5 0.0
27/04:00am 15.0 15.2 14.8 99 0.1 SE 7 11 4 6 1012.5 1006.6 0.0
27/03:47am 14.5 14.4 14.0 97 0.3 SE 7 11 4 6 1012.6 1006.7 0.0
27/03:30am 15.2 15.1 14.9 98 0.2 SE 9 13 5 7 1012.6 1006.7 0.0
27/03:11am 16.0 16.2 15.8 99 0.1 SE 9 13 5 7 1012.7 1006.8 0.0
27/03:05am 15.8 15.9 15.6 99 0.1 SE 9 13 5 7 1012.7 1006.8 0.0
27/03:00am 15.9 16.1 15.7 99 0.1 SE 9 13 5 7 1012.7 1006.8 0.0
27/02:35am 16.4 16.0 16.2 99 0.1 ESE 13 17 7 9 1012.7 1006.8 0.0
27/02:30am 16.3 15.9 16.1 99 0.1 ESE 13 15 7 8 1012.9 1006.9 0.0
27/02:10am 16.0 15.8 15.8 99 0.1 SE 11 15 6 8 1013.1 1007.2 0.0
27/02:00am 14.7 14.3 14.2 97 0.3 SE 9 13 5 7 1013.2 1007.3 0.0
27/01:30am 14.1 13.9 13.1 94 0.6 SE 6 9 3 5 1013.3 1007.4 0.0
27/01:00am 15.2 14.6 14.6 96 0.4 SE 11 15 6 8 1013.2 1007.3 0.0
27/12:30am 14.3 13.6 13.2 93 0.6 SE 9 13 5 7 1013.4 1007.5 0.0
27/12:00am 14.1 13.2 12.5 90 0.9 SE 9 11 5 6 1013.5 1007.6 0.0
 
Date/Time
EDT
Temp
°C
App
Temp
°C
Dew
Point
°C
Rel
Hum
%
Delta-T
°C
Wind Press
QNH
hPa
Press
MSL
hPa
Rain since
9am
mm
Dir  Spd
km/h
Gust
km/h
Spd
kts
Gust
kts
26/11:30pm 15.1 14.1 13.5 90 0.9 SSE 11 11 6 6 1013.7 1007.8 0.0
26/11:00pm 15.4 14.8 13.6 89 1.1 SE 9 11 5 6 1013.5 1007.6 0.0
26/10:30pm 15.4 14.9 12.7 84 1.6 SE 7 9 4 5 1013.4 1007.5 0.0
26/10:00pm 16.3 15.9 12.3 77 2.3 SE 6 9 3 5 1013.1 1007.2 0.0
26/09:30pm 20.2 20.2 14.3 69 3.6 NE 7 11 4 6 1012.7 1006.8 0.0
26/09:00pm 17.2 15.9 12.5 74 2.7 ENE 11 15 6 8 1012.4 1006.5 0.0
26/08:30pm 18.0 17.0 10.9 63 4.0 WSW 7 9 4 5 1011.7 1005.8 0.0
26/08:00pm 22.0 21.0 11.1 50 6.3 WSW 7 7 4 4 1011.4 1005.5 0.0
26/07:30pm 24.5 22.8 11.1 43 7.9 WSW 11 13 6 7 1011.1 1005.1 0.0
26/07:00pm 26.9 24.6 10.6 36 9.6 WSW 13 17 7 9 1010.8 1004.8 0.0
26/06:30pm 27.5 24.6 9.8 33 10.3 WSW 15 20 8 11 1010.4 1004.4 0.0
26/06:00pm 28.1 25.9 10.8 34 10.3 W 13 20 7 11 1010.3 1004.3 0.0
26/05:30pm 28.8 27.3 10.5 32 10.9 WNW 9 19 5 10 1010.3 1004.3 0.0
26/05:00pm 28.5 25.5 9.2 30 11.2 W 15 28 8 15 1010.4 1004.4 0.0
26/04:30pm 28.9 27.4 11.9 35 10.3 W 11 22 6 12 1010.5 1004.6 0.0
26/04:00pm 28.0 25.8 10.7 34 10.3 NNW 13 20 7 11 1010.6 1004.7 0.0
26/03:30pm 28.5 26.0 11.1 34 10.4 WNW 15 28 8 15 1010.9 1004.9 0.0
26/03:00pm 28.4 27.0 11.0 34 10.4 NW 9 19 5 10 1011.1 1005.1 0.0
26/02:30pm 28.1 26.0 12.5 38 9.5 NW 15 26 8 14 1011.3 1005.3 0.0
26/02:00pm 27.3 25.7 12.9 41 8.8 W 13 17 7 9 1011.6 1005.7 0.0
26/01:30pm 27.3 26.7 13.6 43 8.5 NW 9 19 5 10 1012.0 1006.0 0.0
26/01:00pm 26.7 25.7 12.4 41 8.7 NNW 9 15 5 8 1012.4 1006.5 0.0
26/12:30pm 25.4 24.1 11.2 41 8.4 WNW 9 19 5 10 1012.7 1006.8 0.0
26/12:00pm 24.1 23.6 13.9 53 6.3 NW 9 15 5 8 1013.1 1007.2 0.0
26/11:30am 24.0 23.0 13.5 52 6.4 NW 11 19 6 10 1013.2 1007.3 0.0
26/11:00am 23.7 24.1 16.2 63 4.8 NNW 9 15 5 8 1013.4 1007.5 0.0
26/10:30am 22.5 21.6 14.9 62 4.7 WNW 13 19 7 10 1013.6 1007.7 0.0
26/10:00am 21.5 22.0 16.5 73 3.2 NNW 9 15 5 8 1013.7 1007.8 0.0
26/09:30am 19.7 20.9 17.3 86 1.5 WNW 7 15 4 8 1014.1 1008.2 0.0
26/09:16am 18.5 20.6 18.0 97 0.3 NW 4 7 2 4 1014.0 1008.1 0.0
26/09:00am 17.4 19.9 17.2 99 0.1 CALM 0 7 0 4 1014.1 1008.2 0.2
26/08:56am 17.2 19.6 17.0 99 0.1 CALM 0 4 0 2 1014.1 1008.2 0.2
26/08:30am 16.3 17.1 16.3 100 0.0 ESE 7 9 4 5 1014.2 1008.3 0.2
26/08:00am 15.6 15.7 15.6 100 0.0 ESE 9 11 5 6 1014.0 1008.1 0.2
26/07:30am 14.6 14.9 14.6 100 0.0 ESE 6 7 3 4 1013.9 1007.9 0.2
26/07:00am 14.0 14.1 14.0 100 0.0 SE 6 7 3 4 1013.7 1007.8 0.2
26/06:30am 14.1 14.1 14.1 100 0.0 ESE 7 9 4 5 1013.2 1007.3 0.2
26/06:00am 14.2 14.2 14.2 100 0.0 ESE 7 9 4 5 1013.0 1007.0 0.2
26/05:30am 14.0 13.9 14.0 100 0.0 ESE 7 7 4 4 1012.5 1006.6 0.2
26/05:00am 14.2 14.2 14.2 100 0.0 ESE 7 9 4 5 1012.4 1006.5 0.0
26/04:30am 14.2 14.2 14.2 100 0.0 ESE 7 9 4 5 1012.4 1006.5 0.0
26/04:00am 12.3 11.2 12.1 99 0.1 E 9 11 5 6 1012.6 1006.7 0.0
26/03:30am 12.1 11.3 11.8 98 0.2 SE 7 9 4 5 1012.7 1006.8 0.0
26/03:00am 12.5 12.0 12.2 98 0.2 ESE 6 7 3 4 1013.1 1007.2 0.0
26/02:50am 11.9 11.0 11.4 97 0.3 ESE 7 9 4 5 1013.1 1007.2 0.0
26/02:30am 12.4 11.9 11.9 97 0.3 SE 6 9 3 5 1013.2 1007.3 0.0

Other formats

Comma delimited format used in spreadsheet applications
http://www.bom.gov.au/fwo/IDN60801/IDN60801.94588.axf

JavaScript Object Notation format (JSON) in row-major order
http://www.bom.gov.au/fwo/IDN60801/IDN60801.94588.json

Data quality

Most of these data are generated automatically and are frequently updated. Quality checks on data are not normally performed. It is possible for incorrect values to appear. Refer to information at About Latest Weather Observations and please check the disclaimer before using these data.